Austin (LCRA Redbud)'s Hourly Summary for Wednesday, March 15, 2017
Hour Temp
(f)
RH
(%)
Solar Rad.
(MJ/m2)
Rainfall
(in)
Wind
(mph)
3/15/2017 12:00 AM 52 76 0 0 0.01
3/15/2017 1:00 AM 50 82 0 0 0.01
3/15/2017 2:00 AM 49 88 0 0 0
3/15/2017 3:00 AM 50 85 0 0 0.31
3/15/2017 4:00 AM 49 88 0 0 0.02
3/15/2017 5:00 AM 48 92 0 0 0.04
3/15/2017 6:00 AM 47 95 0 0 0
3/15/2017 7:00 AM 47 96 0 0 0
3/15/2017 8:00 AM 47 97 0.01 0 0.05
3/15/2017 9:00 AM 49 96 0.29 0 0.01
3/15/2017 10:00 AM 57 66 1.14 0 0.62
3/15/2017 11:00 AM 60 63 1.88 0 1.88
3/15/2017 12:00 PM 63 58 2.5 0 2.91
3/15/2017 1:00 PM 67 45 2.95 0 2.74
3/15/2017 2:00 PM 70 36 3.16 0 3.07
3/15/2017 3:00 PM 72 35 3.11 0 4.53
3/15/2017 4:00 PM 73 36 2.81 0 4.39
3/15/2017 5:00 PM 75 36 2.35 0 4.62
3/15/2017 6:00 PM 74 39 1.41 0 4.57
3/15/2017 7:00 PM 72 43 0.44 0 4.11
3/15/2017 8:00 PM 70 49 0.04 0 3.88
3/15/2017 9:00 PM 69 54 0 0 3.48
3/15/2017 10:00 PM 68 57 0 0 2.75
3/15/2017 11:00 PM 66 60 0 0 3.59
Data Summary 60 65 22.09 0.00 1.98